First Clarity — A8RM8 — position and weather

sailwx.info

Track history (hours):
 
Tides and Currents Weather Stations Pressure Air Temp Water Temp Dewpoint Dewpoint Depression Visibility Wind Speed Wind Dir Waves Ship Positions

First Clarity

Last reported at 2014-Jul-29 20:18 UTC. Time now 2014-Jul-30 00:55 UTC.
Position N 34°29' E 138°31'.

Length 104 m; draft 5.8 m.

Type: Cargo ship. MMSI: 636014129.

Date/timePositionNaut miles runAvg speedWind from/ knotsBaromVisibWave heightAir tempDewpointWater temp
2014-Jul-29 20:18N 34°29' E 138°31'41 9.9
2014-Jul-29 16:08N 34°51' E 139°13'710.5
2014-Jul-29 15:26N 34°55' E 139°21'910.2
2014-Jul-29 14:33N 34°60' E 139°30'1110.7
2014-Jul-29 13:33N 35°05' E 139°42'1110.7
2014-Jul-29 12:33N 35°15' E 139°46'1110.6
2014-Jul-29 11:33N 35°24' E 139°40'1 1.1
2014-Jul-29 10:33N 35°24' E 139°38'0 0.0
2014-Jul-29 09:33N 35°24' E 139°38'0 0.0
2014-Jul-29 08:33N 35°24' E 139°38'0 0.0
2014-Jul-29 07:33N 35°24' E 139°38'0 0.0
2014-Jul-29 06:33N 35°24' E 139°38'0 0.0
2014-Jul-29 05:33N 35°24' E 139°38'0 0.0
2014-Jul-29 04:33N 35°24' E 139°38'0 0.0
2014-Jul-29 03:33N 35°24' E 139°38'0 0.1
2014-Jul-29 02:33N 35°24' E 139°38'0 0.1
2014-Jul-29 01:33N 35°24' E 139°38'0 0.0
2014-Jul-29 00:33N 35°24' E 139°38'0 0.0
2014-Jul-28 23:33N 35°24' E 139°38'0 0.1
2014-Jul-28 22:33N 35°25' E 139°39'2 1.6
2014-Jul-28 21:33N 35°23' E 139°40'0 0.0
2014-Jul-28 20:33N 35°23' E 139°40'0 0.1
2014-Jul-28 19:33N 35°23' E 139°40'0 0.0
2014-Jul-28 18:33N 35°23' E 139°40'0 0.0
2014-Jul-28 17:33N 35°23' E 139°40'0 0.0
2014-Jul-28 16:33N 35°23' E 139°40'0 0.0
2014-Jul-28 15:33N 35°23' E 139°40'0 0.0
2014-Jul-28 14:33N 35°23' E 139°40'0 0.0
2014-Jul-28 13:33N 35°23' E 139°40'0 0.0
2014-Jul-28 12:33N 35°23' E 139°40'0 0.0
2014-Jul-28 11:33N 35°23' E 139°40'0 0.1
2014-Jul-28 10:33N 35°23' E 139°40'0 0.0
2014-Jul-28 09:33N 35°23' E 139°40'0 0.0
2014-Jul-28 08:30N 35°23' E 139°40'0 0.0
2014-Jul-28 07:33N 35°23' E 139°40'0 0.0
2014-Jul-28 06:33N 35°23' E 139°40'0 0.0
2014-Jul-28 05:33N 35°23' E 139°40'1 0.7
2014-Jul-28 04:33N 35°23' E 139°41'9 9.0
2014-Jul-28 03:33N 35°16' E 139°47'1110.9
2014-Jul-28 02:33N 35°05' E 139°46'1110.5
2014-Jul-28 01:33N 34°59' E 139°35'1211.1
2014-Jul-28 00:30N 34°52' E 139°23'1111.1
2014-Jul-27 23:32N 34°45' E 139°14'  
Track history (hours):
 
Tides and Currents Weather Stations Pressure Air Temp Water Temp Dewpoint Dewpoint Depression Visibility Wind Speed Wind Dir Waves Ship Positions

First Clarity

Last reported at 2014-Jul-29 20:18 UTC. Time now 2014-Jul-30 00:55 UTC.
Position N 34°29' E 138°31'.

Length 104 m; draft 5.8 m.

Type: Cargo ship. MMSI: 636014129.

Date/timePositionNaut miles runAvg speedWind from/ knotsBaromVisibWave heightAir tempDewpointWater temp
2014-Jul-29 20:18N 34°29' E 138°31'41 9.9
2014-Jul-29 16:08N 34°51' E 139°13'710.5
2014-Jul-29 15:26N 34°55' E 139°21'910.2
2014-Jul-29 14:33N 34°60' E 139°30'1110.7
2014-Jul-29 13:33N 35°05' E 139°42'1110.7
2014-Jul-29 12:33N 35°15' E 139°46'1110.6
2014-Jul-29 11:33N 35°24' E 139°40'1 1.1
2014-Jul-29 10:33N 35°24' E 139°38'0 0.0
2014-Jul-29 09:33N 35°24' E 139°38'0 0.0
2014-Jul-29 08:33N 35°24' E 139°38'0 0.0
2014-Jul-29 07:33N 35°24' E 139°38'0 0.0
2014-Jul-29 06:33N 35°24' E 139°38'0 0.0
2014-Jul-29 05:33N 35°24' E 139°38'0 0.0
2014-Jul-29 04:33N 35°24' E 139°38'0 0.0
2014-Jul-29 03:33N 35°24' E 139°38'0 0.1
2014-Jul-29 02:33N 35°24' E 139°38'0 0.1
2014-Jul-29 01:33N 35°24' E 139°38'0 0.0
2014-Jul-29 00:33N 35°24' E 139°38'0 0.0
2014-Jul-28 23:33N 35°24' E 139°38'0 0.1
2014-Jul-28 22:33N 35°25' E 139°39'2 1.6
2014-Jul-28 21:33N 35°23' E 139°40'0 0.0
2014-Jul-28 20:33N 35°23' E 139°40'0 0.1
2014-Jul-28 19:33N 35°23' E 139°40'0 0.0
2014-Jul-28 18:33N 35°23' E 139°40'0 0.0
2014-Jul-28 17:33N 35°23' E 139°40'0 0.0
2014-Jul-28 16:33N 35°23' E 139°40'0 0.0
2014-Jul-28 15:33N 35°23' E 139°40'0 0.0
2014-Jul-28 14:33N 35°23' E 139°40'0 0.0
2014-Jul-28 13:33N 35°23' E 139°40'0 0.0
2014-Jul-28 12:33N 35°23' E 139°40'0 0.0
2014-Jul-28 11:33N 35°23' E 139°40'0 0.1
2014-Jul-28 10:33N 35°23' E 139°40'0 0.0
2014-Jul-28 09:33N 35°23' E 139°40'0 0.0
2014-Jul-28 08:30N 35°23' E 139°40'0 0.0
2014-Jul-28 07:33N 35°23' E 139°40'0 0.0
2014-Jul-28 06:33N 35°23' E 139°40'0 0.0
2014-Jul-28 05:33N 35°23' E 139°40'1 0.7
2014-Jul-28 04:33N 35°23' E 139°41'9 9.0
2014-Jul-28 03:33N 35°16' E 139°47'1110.9
2014-Jul-28 02:33N 35°05' E 139°46'1110.5
2014-Jul-28 01:33N 34°59' E 139°35'1211.1
2014-Jul-28 00:30N 34°52' E 139°23'1111.1
2014-Jul-27 23:32N 34°45' E 139°14'  

Dump ship's entire track history